Time;durP1;ratioP1;P1;durP2;ratioP2;P2;SDS_P1;SDS_P2;PMS_P1;PMS_P2;Temp;Humidity;BMP_temperature;BMP_pressure;BME280_temperature;BME280_humidity;BME280_pressure;Samples;Min_cycle;Max_cycle;Signal;HPM_P1;HPM_P2
2023/09/24 00:01:58;;;;;;;8.88;7.97;;;13.00;99.90;;;;;;4967264;28;20309;-73
2023/09/24 00:04:25;;;;;;;9.75;8.75;;;13.00;99.90;;;;;;4972009;28;20622;-72
2023/09/24 00:06:52;;;;;;;8.77;7.97;;;13.00;99.90;;;;;;4974044;28;20307;-74
2023/09/24 00:09:19;;;;;;;9.20;8.50;;;13.00;99.90;;;;;;4975634;28;20232;-74
2023/09/24 00:11:47;;;;;;;8.98;8.18;;;12.90;99.90;;;;;;4966819;28;20307;-73
2023/09/24 00:14:14;;;;;;;13.75;10.35;;;12.90;99.90;;;;;;4971557;28;20205;-72
2023/09/24 00:16:42;;;;;;;9.80;8.80;;;12.80;99.90;;;;;;4971606;28;20241;-73
2023/09/24 00:19:09;;;;;;;9.55;8.63;;;12.80;99.90;;;;;;4970608;28;20316;-73
2023/09/24 00:21:36;;;;;;;11.85;10.65;;;12.80;99.90;;;;;;4972253;28;20229;-73
2023/09/24 00:24:03;;;;;;;12.52;11.15;;;12.70;99.90;;;;;;4969648;28;20638;-72
2023/09/24 00:26:31;;;;;;;11.27;10.15;;;12.70;99.90;;;;;;4972651;28;20256;-73
2023/09/24 00:28:57;;;;;;;12.35;10.35;;;12.60;99.90;;;;;;4968185;28;20205;-72
2023/09/24 00:31:25;;;;;;;11.88;10.63;;;12.60;99.90;;;;;;4969622;28;20243;-72
2023/09/24 00:33:54;;;;;;;11.70;10.60;;;12.60;99.90;;;;;;4969728;28;20653;-74
2023/09/24 00:36:21;;;;;;;11.50;10.20;;;12.60;99.90;;;;;;4971454;28;20237;-73
2023/09/24 00:38:49;;;;;;;12.38;11.05;;;12.50;99.90;;;;;;4971989;28;20201;-73
2023/09/24 00:41:17;;;;;;;11.77;10.57;;;12.50;99.90;;;;;;4973620;28;20216;-72
2023/09/24 00:43:44;;;;;;;11.57;10.38;;;12.50;99.90;;;;;;4970501;28;20224;-73
2023/09/24 00:46:14;;;;;;;12.68;11.38;;;12.50;99.90;;;;;;4965558;28;20352;-73
2023/09/24 00:48:43;;;;;;;12.60;10.13;;;12.50;99.90;;;;;;4970284;28;20225;-73
2023/09/24 00:51:16;;;;;;;16.70;11.55;;;12.50;99.90;;;;;;4974907;28;20252;-74
2023/09/24 00:53:44;;;;;;;10.75;9.65;;;12.40;99.90;;;;;;4969956;28;20221;-74
2023/09/24 00:56:11;;;;;;;12.57;10.27;;;12.40;99.90;;;;;;4971985;28;20646;-73
2023/09/24 00:58:39;;;;;;;14.73;10.35;;;12.40;99.90;;;;;;4965197;28;20325;-74
2023/09/24 01:01:06;;;;;;;10.25;9.25;;;12.40;99.90;;;;;;4971142;28;20247;-74
2023/09/24 01:03:33;;;;;;;13.00;11.18;;;12.50;99.90;;;;;;4968087;28;20240;-73
2023/09/24 01:06:00;;;;;;;12.40;9.57;;;12.40;99.90;;;;;;4971624;28;20225;-73
2023/09/24 01:08:31;;;;;;;15.98;9.85;;;12.40;99.90;;;;;;4980547;28;20272;-74
2023/09/24 01:10:58;;;;;;;15.75;13.98;;;12.40;99.90;;;;;;4976613;28;20254;-72
2023/09/24 01:13:26;;;;;;;10.80;9.70;;;12.40;99.90;;;;;;4978737;28;20236;-72
2023/09/24 01:15:53;;;;;;;9.80;8.80;;;12.40;99.90;;;;;;4971889;28;20692;-72
2023/09/24 01:18:21;;;;;;;9.35;8.35;;;12.40;99.90;;;;;;4971716;28;20663;-73
2023/09/24 01:20:48;;;;;;;14.10;9.35;;;12.40;99.90;;;;;;4975201;28;20227;-73
2023/09/24 01:23:17;;;;;;;10.52;9.52;;;12.40;99.90;;;;;;4973900;28;20548;-72
2023/09/24 01:25:45;;;;;;;10.70;9.20;;;12.40;99.90;;;;;;4967397;28;20213;-73
2023/09/24 01:28:11;;;;;;;10.05;9.05;;;12.40;99.90;;;;;;4968596;28;20212;-74
2023/09/24 01:30:39;;;;;;;9.63;8.73;;;12.40;99.90;;;;;;4970653;28;20722;-74
2023/09/24 01:33:06;;;;;;;11.15;10.00;;;12.40;99.90;;;;;;4973783;28;20207;-71
2023/09/24 01:35:34;;;;;;;12.68;10.73;;;12.40;99.90;;;;;;4971126;28;20303;-73
2023/09/24 01:38:04;;;;;;;11.05;9.43;;;12.40;99.90;;;;;;4965053;28;20212;-73
2023/09/24 01:40:35;;;;;;;9.25;8.20;;;12.30;99.90;;;;;;4964121;28;20205;-74
2023/09/24 01:43:05;;;;;;;10.38;9.35;;;12.40;99.90;;;;;;4968463;28;20208;-73
2023/09/24 01:45:34;;;;;;;10.88;9.52;;;12.30;99.90;;;;;;4971566;28;20231;-72
2023/09/24 01:48:03;;;;;;;15.82;12.35;;;12.30;99.90;;;;;;4968428;28;20207;-73
2023/09/24 01:50:30;;;;;;;13.55;11.00;;;12.30;99.90;;;;;;4964173;28;20280;-73
2023/09/24 01:52:57;;;;;;;13.45;10.27;;;12.40;99.90;;;;;;4971670;28;20298;-73
2023/09/24 01:55:25;;;;;;;10.65;9.52;;;12.40;99.90;;;;;;4970792;28;20212;-75
2023/09/24 01:57:54;;;;;;;14.07;10.98;;;12.40;99.90;;;;;;4972852;28;20234;-73
2023/09/24 02:00:23;;;;;;;13.50;10.95;;;12.40;99.90;;;;;;4968091;28;20216;-70
2023/09/24 02:02:51;;;;;;;14.25;10.80;;;12.40;99.90;;;;;;4962592;28;20316;-72
2023/09/24 02:05:20;;;;;;;12.80;11.43;;;12.40;99.90;;;;;;4972748;28;20205;-75
2023/09/24 02:07:48;;;;;;;13.73;10.77;;;12.40;99.90;;;;;;4968280;28;20700;-73
2023/09/24 02:10:17;;;;;;;11.77;8.80;;;12.30;99.90;;;;;;4969314;28;20214;-72
2023/09/24 02:12:45;;;;;;;10.63;9.65;;;12.30;99.90;;;;;;4967917;28;20251;-72
2023/09/24 02:15:17;;;;;;;10.90;9.80;;;12.30;99.90;;;;;;4966612;28;20262;-72
2023/09/24 02:17:47;;;;;;;10.77;9.77;;;12.20;99.90;;;;;;4969973;28;21682;-72
2023/09/24 02:20:22;;;;;;;9.73;8.60;;;12.20;99.90;;;;;;4968097;28;20659;-73
2023/09/24 02:22:50;;;;;;;13.95;12.55;;;12.20;99.90;;;;;;4972390;28;20245;-73
2023/09/24 02:25:19;;;;;;;10.90;9.80;;;12.20;99.90;;;;;;4967905;28;20295;-74
2023/09/24 02:27:46;;;;;;;13.35;11.52;;;12.10;99.90;;;;;;4969732;28;20242;-73
2023/09/24 02:30:15;;;;;;;12.38;11.15;;;12.10;99.90;;;;;;4970726;28;20221;-72
2023/09/24 02:32:42;;;;;;;13.93;12.13;;;12.00;99.90;;;;;;4967663;28;20246;-73
2023/09/24 02:35:12;;;;;;;13.75;11.98;;;12.00;99.90;;;;;;4973758;28;20210;-74
2023/09/24 02:37:40;;;;;;;15.40;13.18;;;11.90;99.90;;;;;;4968556;28;20278;-75
2023/09/24 02:40:12;;;;;;;16.63;13.57;;;11.90;99.90;;;;;;4973709;28;20204;-73
2023/09/24 02:42:40;;;;;;;19.73;13.65;;;11.90;99.90;;;;;;4973164;28;20214;-74
2023/09/24 02:45:09;;;;;;;16.00;12.60;;;11.90;99.90;;;;;;4968320;28;20199;-74
2023/09/24 02:47:37;;;;;;;15.70;12.20;;;11.80;99.90;;;;;;4973594;28;20229;-74
2023/09/24 02:50:12;;;;;;;14.15;10.68;;;11.80;99.90;;;;;;4972756;28;20224;-73
2023/09/24 02:52:40;;;;;;;11.73;10.57;;;11.90;99.90;;;;;;4969532;28;20204;-72
2023/09/24 02:55:08;;;;;;;15.88;10.95;;;11.90;99.90;;;;;;4966151;28;20208;-74
2023/09/24 02:57:35;;;;;;;11.38;10.25;;;11.90;99.90;;;;;;4965562;28;20307;-73
2023/09/24 03:00:08;;;;;;;14.00;12.50;;;11.80;99.90;;;;;;4967604;28;20238;-73
2023/09/24 03:02:37;;;;;;;13.57;12.15;;;11.80;99.90;;;;;;4971049;28;20195;-75
2023/09/24 03:05:08;;;;;;;39.38;17.40;;;11.90;99.90;;;;;;4969755;28;20217;-73
2023/09/24 03:07:35;;;;;;;26.13;14.45;;;11.90;99.90;;;;;;4968982;28;20235;-73
2023/09/24 03:10:03;;;;;;;18.25;12.48;;;11.80;99.90;;;;;;4962877;28;20210;-73
2023/09/24 03:12:30;;;;;;;36.17;14.50;;;11.80;99.90;;;;;;4969128;28;20227;-74
2023/09/24 03:14:58;;;;;;;22.67;13.98;;;11.70;99.90;;;;;;4961602;28;20304;-73
2023/09/24 03:17:24;;;;;;;15.18;12.55;;;11.70;99.90;;;;;;4969053;28;20709;-73
2023/09/24 03:19:53;;;;;;;29.02;16.60;;;11.60;99.90;;;;;;4973361;28;20210;-73
2023/09/24 03:22:21;;;;;;;16.13;12.75;;;11.60;99.90;;;;;;4971259;28;20293;-73
2023/09/24 03:24:48;;;;;;;26.50;14.65;;;11.60;99.90;;;;;;4974746;28;20206;-72
2023/09/24 03:27:15;;;;;;;15.63;13.52;;;11.60;99.90;;;;;;4963543;28;20231;-72
2023/09/24 03:29:43;;;;;;;23.55;15.07;;;11.60;99.90;;;;;;4970287;28;20428;-72
2023/09/24 03:32:10;;;;;;;21.80;15.55;;;11.60;99.90;;;;;;4965410;28;20243;-73
2023/09/24 03:34:38;;;;;;;21.55;15.35;;;11.40;99.90;;;;;;4969397;28;20206;-73
2023/09/24 03:37:09;;;;;;;18.30;12.90;;;11.40;99.90;;;;;;4973675;28;20221;-73
2023/09/24 03:39:36;;;;;;;27.48;15.00;;;11.40;99.90;;;;;;4963232;28;20211;-72
2023/09/24 03:42:04;;;;;;;45.30;18.02;;;11.40;99.90;;;;;;4969992;28;20226;-73
2023/09/24 03:44:31;;;;;;;16.70;14.00;;;11.20;99.90;;;;;;4968320;28;20633;-73
2023/09/24 03:46:58;;;;;;;22.13;14.95;;;11.20;99.90;;;;;;4972834;28;20305;-73
2023/09/24 03:49:24;;;;;;;22.30;16.15;;;11.20;99.90;;;;;;4974996;28;20218;-71
2023/09/24 03:51:51;;;;;;;20.92;14.95;;;11.30;99.90;;;;;;4975613;28;20229;-73
2023/09/24 03:54:19;;;;;;;19.85;15.30;;;11.30;99.90;;;;;;4971228;28;20210;-73
2023/09/24 03:56:46;;;;;;;25.00;15.85;;;11.40;99.90;;;;;;4967543;28;20305;-73
2023/09/24 03:59:13;;;;;;;19.17;14.02;;;11.40;99.90;;;;;;4971668;28;20672;-72
2023/09/24 04:01:40;;;;;;;25.13;15.68;;;11.40;99.90;;;;;;4967226;28;20324;-73
2023/09/24 04:04:12;;;;;;;29.83;16.35;;;11.40;99.90;;;;;;4972938;28;20557;-73
2023/09/24 04:06:40;;;;;;;28.55;17.27;;;11.30;99.90;;;;;;4974604;28;20226;-73
2023/09/24 04:09:07;;;;;;;20.90;15.30;;;11.30;99.90;;;;;;4973681;28;20254;-73
2023/09/24 04:11:36;;;;;;;51.75;19.25;;;11.50;99.90;;;;;;4974898;28;20631;-73
2023/09/24 04:14:03;;;;;;;23.15;14.35;;;11.50;99.90;;;;;;4972257;28;20207;-73
2023/09/24 04:16:30;;;;;;;20.52;14.65;;;11.50;99.90;;;;;;4972621;28;20226;-73
2023/09/24 04:18:57;;;;;;;22.48;15.75;;;11.50;99.90;;;;;;4970794;28;20220;-73
2023/09/24 04:21:24;;;;;;;24.20;15.30;;;11.50;99.90;;;;;;4968328;28;20208;-73
2023/09/24 04:23:51;;;;;;;29.80;17.83;;;11.40;99.90;;;;;;4968987;28;20220;-74
2023/09/24 04:26:23;;;;;;;36.25;17.67;;;11.50;99.90;;;;;;4966286;28;20316;-73
2023/09/24 04:28:52;;;;;;;17.88;13.55;;;11.50;99.90;;;;;;4974647;28;20203;-72
2023/09/24 04:31:19;;;;;;;23.30;15.68;;;11.50;99.90;;;;;;4971167;28;20323;-72
2023/09/24 04:33:48;;;;;;;42.17;20.40;;;11.60;99.90;;;;;;4968262;28;20663;-72
2023/09/24 04:36:17;;;;;;;43.60;19.30;;;11.60;99.90;;;;;;4963896;28;20234;-73
2023/09/24 04:38:44;;;;;;;38.10;18.52;;;11.50;99.90;;;;;;4974243;28;20209;-72
2023/09/24 04:41:11;;;;;;;28.00;17.38;;;11.50;99.90;;;;;;4972244;28;20201;-72
2023/09/24 04:43:38;;;;;;;29.10;17.63;;;11.60;99.90;;;;;;4973391;28;20590;-72
2023/09/24 04:46:06;;;;;;;25.52;14.88;;;11.60;99.90;;;;;;4973121;28;20255;-72
2023/09/24 04:48:33;;;;;;;30.10;16.30;;;11.70;99.90;;;;;;4968631;28;20306;-73
2023/09/24 04:51:00;;;;;;;26.42;15.43;;;11.70;99.90;;;;;;4973849;28;20208;-72
2023/09/24 04:53:27;;;;;;;18.50;15.57;;;11.70;99.90;;;;;;4966570;28;20557;-72
2023/09/24 04:55:55;;;;;;;71.90;21.75;;;11.80;99.90;;;;;;4969292;28;20304;-72
2023/09/24 04:58:22;;;;;;;50.55;18.27;;;11.70;99.90;;;;;;4968863;28;20214;-72
2023/09/24 05:00:49;;;;;;;41.05;17.20;;;11.70;99.90;;;;;;4967516;28;20214;-72
2023/09/24 05:03:17;;;;;;;38.38;17.58;;;11.70;99.90;;;;;;4970848;28;20213;-73
2023/09/24 05:05:44;;;;;;;29.73;17.65;;;11.80;99.90;;;;;;4972974;28;20664;-72
2023/09/24 05:08:11;;;;;;;17.58;14.25;;;11.80;99.90;;;;;;4972432;28;20236;-74
2023/09/24 05:10:41;;;;;;;16.05;13.73;;;11.80;99.90;;;;;;4968234;28;20655;-73
2023/09/24 05:13:08;;;;;;;45.78;15.40;;;11.90;99.90;;;;;;4969591;28;20224;-73
2023/09/24 05:15:36;;;;;;;20.63;13.48;;;11.90;99.90;;;;;;4965907;28;20674;-73
2023/09/24 05:18:04;;;;;;;39.92;18.70;;;11.90;99.90;;;;;;4971329;28;20206;-73
2023/09/24 05:20:32;;;;;;;42.00;17.27;;;12.00;99.90;;;;;;4968833;28;20243;-73
2023/09/24 05:23:00;;;;;;;28.02;15.27;;;12.00;99.90;;;;;;4971941;28;20291;-73
2023/09/24 05:25:27;;;;;;;18.42;14.95;;;11.90;99.90;;;;;;4969433;28;20289;-73
2023/09/24 05:27:54;;;;;;;20.58;14.98;;;12.00;99.90;;;;;;4972428;28;20223;-74
2023/09/24 05:30:21;;;;;;;31.40;17.23;;;12.00;99.90;;;;;;4974918;28;20630;-73
2023/09/24 05:32:48;;;;;;;34.42;17.13;;;12.00;99.90;;;;;;4973429;28;20258;-73
2023/09/24 05:35:15;;;;;;;31.70;16.65;;;12.10;99.90;;;;;;4972123;28;20214;-73
2023/09/24 05:37:43;;;;;;;29.08;14.10;;;12.00;99.90;;;;;;4968593;28;20224;-73
2023/09/24 05:40:11;;;;;;;20.27;15.50;;;12.10;99.90;;;;;;4968536;28;20204;-74
2023/09/24 05:42:38;;;;;;;37.90;17.15;;;12.10;99.90;;;;;;4969986;28;20214;-73
2023/09/24 05:45:06;;;;;;;26.08;13.40;;;12.10;99.90;;;;;;4966679;28;20307;-73
2023/09/24 05:47:33;;;;;;;17.77;11.40;;;12.10;99.90;;;;;;4974368;28;20640;-74
2023/09/24 05:50:00;;;;;;;45.38;15.07;;;12.20;99.90;;;;;;4965712;28;20212;-73
2023/09/24 05:52:28;;;;;;;40.80;13.30;;;12.10;99.90;;;;;;4970572;28;20266;-73
2023/09/24 05:54:56;;;;;;;22.92;15.10;;;12.20;99.90;;;;;;4968660;28;20276;-72
2023/09/24 05:57:26;;;;;;;25.52;14.95;;;12.10;99.90;;;;;;4975862;28;20372;-73
2023/09/24 05:59:53;;;;;;;22.05;15.48;;;12.20;99.90;;;;;;4974923;28;20214;-72
2023/09/24 06:02:20;;;;;;;27.58;13.95;;;12.20;99.90;;;;;;4974627;28;20649;-73
2023/09/24 06:04:49;;;;;;;22.73;14.63;;;12.20;99.90;;;;;;4971315;28;20720;-73
2023/09/24 06:07:17;;;;;;;41.28;16.75;;;12.30;99.90;;;;;;4973739;28;20232;-73
2023/09/24 06:09:44;;;;;;;26.15;14.63;;;12.30;99.90;;;;;;4972907;28;20219;-72
2023/09/24 06:12:12;;;;;;;21.65;15.88;;;12.40;99.90;;;;;;4970863;28;20307;-72
2023/09/24 06:14:39;;;;;;;14.18;11.75;;;12.40;99.90;;;;;;4973847;28;20209;-72
2023/09/24 06:17:06;;;;;;;27.40;14.40;;;12.50;99.90;;;;;;4972208;28;20256;-72
2023/09/24 06:19:33;;;;;;;27.85;15.48;;;12.50;99.90;;;;;;4969428;28;20293;-72
2023/09/24 06:22:00;;;;;;;37.30;16.70;;;12.50;99.90;;;;;;4972427;28;20204;-72
2023/09/24 06:24:26;;;;;;;31.40;13.20;;;12.50;99.90;;;;;;4973824;28;20941;-71
2023/09/24 06:26:53;;;;;;;25.45;12.02;;;12.40;99.90;;;;;;4967266;28;20233;-73
2023/09/24 06:29:22;;;;;;;46.05;15.93;;;12.50;99.90;;;;;;4967000;28;20292;-73
2023/09/24 06:31:50;;;;;;;18.42;12.27;;;12.50;99.90;;;;;;4964513;28;20249;-72
2023/09/24 06:34:17;;;;;;;29.05;12.98;;;12.50;99.90;;;;;;4961662;28;20214;-73
2023/09/24 06:36:44;;;;;;;12.80;11.35;;;12.50;99.90;;;;;;4971975;28;20334;-72
2023/09/24 06:39:13;;;;;;;35.22;14.95;;;12.60;99.90;;;;;;4973418;28;20209;-73
2023/09/24 06:41:41;;;;;;;13.85;12.43;;;12.70;99.90;;;;;;4973215;28;20632;-74
2023/09/24 06:44:09;;;;;;;29.92;13.10;;;12.70;99.90;;;;;;4973586;28;20679;-73
2023/09/24 06:46:38;;;;;;;17.38;12.77;;;12.70;99.90;;;;;;4967654;28;20229;-73
2023/09/24 06:49:05;;;;;;;24.50;14.95;;;12.80;99.90;;;;;;4968709;28;20731;-73
2023/09/24 06:51:32;;;;;;;18.63;13.98;;;12.70;99.90;;;;;;4963413;28;20289;-72
2023/09/24 06:53:59;;;;;;;15.57;12.68;;;12.70;99.90;;;;;;4972454;28;20203;-72
2023/09/24 06:56:26;;;;;;;17.60;13.10;;;12.80;99.90;;;;;;4971180;28;20280;-72
2023/09/24 06:58:53;;;;;;;21.08;14.90;;;12.80;99.90;;;;;;4974118;28;20209;-72
2023/09/24 07:01:20;;;;;;;16.23;12.30;;;13.00;99.90;;;;;;4976059;28;20216;-72
2023/09/24 07:03:51;;;;;;;14.80;12.73;;;12.90;99.90;;;;;;4969179;28;20663;-71
2023/09/24 07:06:18;;;;;;;28.05;13.05;;;12.90;99.90;;;;;;4972552;28;20316;-71
2023/09/24 07:08:45;;;;;;;11.93;10.70;;;12.90;99.90;;;;;;4969661;28;20206;-72
2023/09/24 07:11:30;;;;;;;13.45;11.38;;;13.10;99.90;;;;;;4969805;28;20210;-69
2023/09/24 07:13:57;;;;;;;15.43;12.63;;;13.20;99.90;;;;;;4972916;28;20212;-71
2023/09/24 07:16:26;;;;;;;16.75;13.57;;;13.20;99.90;;;;;;4966654;28;20234;-72
2023/09/24 07:18:57;;;;;;;17.40;13.75;;;13.40;99.90;;;;;;4975068;28;20206;-72
2023/09/24 07:21:26;;;;;;;16.33;12.48;;;13.30;99.90;;;;;;4972742;28;20218;-73
2023/09/24 07:23:54;;;;;;;14.88;11.82;;;13.30;99.90;;;;;;4968891;28;20202;-73
2023/09/24 07:26:22;;;;;;;19.00;13.73;;;13.40;99.90;;;;;;4976574;28;20226;-73
2023/09/24 07:28:49;;;;;;;12.85;11.55;;;13.50;99.90;;;;;;4971303;28;20618;-74
2023/09/24 07:31:19;;;;;;;13.93;11.18;;;13.70;99.90;;;;;;4968939;28;20261;-73
2023/09/24 07:33:46;;;;;;;17.88;12.23;;;13.60;99.90;;;;;;4976578;28;20234;-74
2023/09/24 07:36:15;;;;;;;13.55;12.15;;;13.80;99.90;;;;;;4976151;28;20222;-73
2023/09/24 07:38:42;;;;;;;14.43;11.68;;;14.00;99.90;;;;;;4975374;28;20308;-73
2023/09/24 07:41:09;;;;;;;16.63;12.73;;;14.10;99.90;;;;;;4976496;28;20615;-74
2023/09/24 07:43:37;;;;;;;14.40;11.88;;;14.00;99.90;;;;;;4971639;28;20198;-71
2023/09/24 07:46:05;;;;;;;15.45;12.13;;;14.20;99.90;;;;;;4972516;28;20253;-74
2023/09/24 07:48:32;;;;;;;15.63;11.90;;;14.30;99.90;;;;;;4971852;28;20265;-72
2023/09/24 07:50:59;;;;;;;14.60;11.65;;;14.30;99.90;;;;;;4964531;28;20209;-72
2023/09/24 07:53:27;;;;;;;14.07;12.10;;;14.40;99.90;;;;;;4969800;28;20231;-72
2023/09/24 07:55:55;;;;;;;15.23;12.00;;;14.60;99.90;;;;;;4969512;28;20227;-72
2023/09/24 07:58:23;;;;;;;13.48;10.55;;;14.70;99.90;;;;;;4964981;28;20218;-72
2023/09/24 08:00:51;;;;;;;15.52;11.55;;;14.80;99.90;;;;;;4968059;28;20615;-73
2023/09/24 08:03:18;;;;;;;13.98;11.02;;;14.90;99.90;;;;;;4970237;28;20265;-73
2023/09/24 08:05:45;;;;;;;15.68;12.77;;;14.90;99.90;;;;;;4965262;28;20649;-74
2023/09/24 08:08:12;;;;;;;15.80;13.18;;;14.80;99.90;;;;;;4957659;28;20207;-73
2023/09/24 08:10:40;;;;;;;15.57;12.20;;;14.80;99.90;;;;;;4970025;28;20573;-74
2023/09/24 08:13:07;;;;;;;15.38;11.77;;;14.80;99.90;;;;;;4963220;28;20222;-73
2023/09/24 08:15:34;;;;;;;13.90;12.25;;;14.90;99.90;;;;;;4975331;28;20210;-74
2023/09/24 08:18:02;;;;;;;14.52;12.65;;;15.10;99.90;;;;;;4967088;28;20229;-74
2023/09/24 08:20:29;;;;;;;12.95;11.25;;;15.10;99.90;;;;;;4965493;28;20208;-73
2023/09/24 08:22:55;;;;;;;18.60;12.38;;;15.30;99.90;;;;;;4963947;28;20294;-73
2023/09/24 08:25:23;;;;;;;12.35;11.07;;;15.50;99.90;;;;;;4968163;28;20299;-73
2023/09/24 08:27:51;;;;;;;13.50;10.98;;;15.70;99.90;;;;;;4972667;28;20228;-73
2023/09/24 08:30:20;;;;;;;12.15;10.75;;;15.80;99.90;;;;;;4963773;28;20223;-72
2023/09/24 08:32:47;;;;;;;13.18;11.63;;;15.80;99.90;;;;;;4970748;28;20238;-72
2023/09/24 08:35:14;;;;;;;16.35;12.00;;;15.60;99.90;;;;;;4969051;28;20200;-73
2023/09/24 08:37:41;;;;;;;14.68;11.50;;;15.80;99.90;;;;;;4964663;28;20309;-72
2023/09/24 08:40:11;;;;;;;14.15;12.65;;;15.80;99.90;;;;;;4972503;28;20204;-72
2023/09/24 08:42:39;;;;;;;12.77;11.43;;;16.00;99.90;;;;;;4964726;28;20205;-71
2023/09/24 08:45:12;;;;;;;16.23;11.80;;;16.10;99.90;;;;;;4975264;28;20288;-71
2023/09/24 08:47:40;;;;;;;15.90;13.45;;;16.10;99.90;;;;;;4968979;28;20592;-75
2023/09/24 08:50:08;;;;;;;18.98;13.52;;;16.20;99.90;;;;;;4968599;28;20271;-76
2023/09/24 08:52:39;;;;;;;15.35;13.40;;;16.20;99.90;;;;;;4969134;28;20303;-75
2023/09/24 08:55:09;;;;;;;16.33;14.10;;;16.30;99.90;;;;;;4974270;28;20738;-76
2023/09/24 08:57:36;;;;;;;16.60;14.07;;;16.60;99.90;;;;;;4965123;28;20500;-76
2023/09/24 09:00:06;;;;;;;13.73;12.33;;;17.00;99.90;;;;;;4971660;28;20526;-75
2023/09/24 09:02:34;;;;;;;11.90;10.70;;;17.60;99.90;;;;;;4958554;28;20450;-75
2023/09/24 09:05:01;;;;;;;15.77;14.13;;;17.90;99.90;;;;;;4967387;28;20453;-74
2023/09/24 09:07:28;;;;;;;15.80;13.93;;;18.10;99.90;;;;;;4974225;28;20497;-76
2023/09/24 09:09:55;;;;;;;15.53;14.00;;;18.30;99.90;;;;;;4972032;28;20449;-79
2023/09/24 09:12:23;;;;;;;16.40;14.80;;;18.70;99.90;;;;;;4961940;28;20450;-78
2023/09/24 09:14:51;;;;;;;17.07;14.20;;;18.60;99.90;;;;;;4976309;28;20482;-78
2023/09/24 09:17:18;;;;;;;16.07;14.53;;;18.40;99.90;;;;;;4978258;28;20489;-77
2023/09/24 09:19:52;;;;;;;15.13;13.83;;;18.50;99.90;;;;;;4971885;28;20477;-78
2023/09/24 09:22:21;;;;;;;15.67;14.07;;;18.50;99.90;;;;;;4969306;28;20489;-78
2023/09/24 09:24:50;;;;;;;12.40;11.20;;;18.90;99.90;;;;;;4974901;28;20464;-76
2023/09/24 09:27:17;;;;;;;13.93;12.53;;;19.80;99.90;;;;;;4969844;28;20503;-77
2023/09/24 09:29:44;;;;;;;12.07;10.77;;;21.00;99.90;;;;;;4975140;28;20446;-77
2023/09/24 09:32:12;;;;;;;11.23;10.03;;;22.40;99.90;;;;;;4966260;28;20451;-76
2023/09/24 09:34:53;;;;;;;11.53;10.30;;;23.40;99.90;;;;;;4963263;28;20582;-75
2023/09/24 09:37:21;;;;;;;11.53;10.53;;;23.90;99.80;;;;;;4966582;28;20472;-77
2023/09/24 09:39:48;;;;;;;12.47;11.10;;;24.20;97.50;;;;;;4974376;28;20776;-78
2023/09/24 09:42:21;;;;;;;12.33;11.13;;;23.90;97.10;;;;;;4968355;28;20454;-77
2023/09/24 09:44:51;;;;;;;14.50;11.80;;;22.90;99.40;;;;;;4970546;28;20457;-74
2023/09/24 09:47:20;;;;;;;12.33;10.90;;;23.00;99.60;;;;;;4968909;28;20472;-75
2023/09/24 09:49:55;;;;;;;11.17;9.93;;;23.00;98.90;;;;;;4964762;28;20465;-74
2023/09/24 09:52:28;;;;;;;10.80;9.77;;;23.20;98.50;;;;;;4967266;28;20440;-77
2023/09/24 09:54:57;;;;;;;11.77;8.87;;;23.50;96.70;;;;;;4967919;28;20454;-77
2023/09/24 09:57:24;;;;;;;8.10;7.30;;;23.80;96.40;;;;;;4971333;28;20548;-75
2023/09/24 09:59:52;;;;;;;13.20;9.53;;;24.00;95.20;;;;;;4973469;28;20472;-75
2023/09/24 10:02:21;;;;;;;9.43;8.53;;;23.90;94.90;;;;;;4967257;28;20445;-74
2023/09/24 10:04:48;;;;;;;9.40;7.80;;;24.00;95.00;;;;;;4970688;28;20441;-73
2023/09/24 10:07:16;;;;;;;10.10;8.20;;;23.90;94.10;;;;;;4961737;28;20561;-75
2023/09/24 10:09:46;;;;;;;8.50;7.70;;;24.10;94.30;;;;;;4969359;28;20516;-76
2023/09/24 10:12:12;;;;;;;10.00;8.80;;;24.10;94.00;;;;;;4965271;28;20505;-75
2023/09/24 10:14:43;;;;;;;10.07;6.90;;;24.10;93.10;;;;;;4962980;28;20509;-75
2023/09/24 10:17:25;;;;;;;11.17;7.00;;;24.50;93.30;;;;;;4965690;28;20549;-74
2023/09/24 10:19:54;;;;;;;7.37;6.57;;;24.80;91.90;;;;;;4966638;28;20450;-76
2023/09/24 10:22:25;;;;;;;8.93;6.33;;;24.60;91.80;;;;;;4970639;28;20520;-75
2023/09/24 10:24:54;;;;;;;10.03;6.30;;;24.50;92.90;;;;;;4972365;28;20839;-75
2023/09/24 10:27:28;;;;;;;8.33;6.57;;;24.60;92.60;;;;;;4973191;28;20529;-77
2023/09/24 10:30:06;;;;;;;7.80;6.40;;;24.40;92.30;;;;;;4959726;28;20471;-74
2023/09/24 10:32:50;;;;;;;8.87;7.97;;;23.60;92.30;;;;;;4960890;28;20441;-74
2023/09/24 10:35:17;;;;;;;9.60;5.57;;;22.30;94.20;;;;;;4960743;28;20529;-76
2023/09/24 10:38:04;;;;;;;7.80;4.87;;;21.70;96.00;;;;;;4963727;28;20467;-75
2023/09/24 10:40:34;;;;;;;9.37;6.10;;;21.90;96.50;;;;;;4964693;28;20444;-73
2023/09/24 10:43:28;;;;;;;6.37;5.00;;;21.70;96.40;;;;;;4963342;28;20434;-75
2023/09/24 10:46:28;;;;;;;7.33;4.13;;;22.00;96.80;;;;;;4969669;28;20595;-75
2023/09/24 10:48:56;;;;;;;5.40;3.97;;;22.20;96.20;;;;;;4964814;28;20544;-75
2023/09/24 10:51:24;;;;;;;5.60;4.60;;;22.40;95.40;;;;;;4970135;28;20980;-74
2023/09/24 10:53:51;;;;;;;8.20;4.17;;;22.20;94.30;;;;;;4965886;28;20509;-74
2023/09/24 10:56:18;;;;;;;7.57;3.60;;;21.90;94.50;;;;;;4965510;28;20529;-74
2023/09/24 10:58:50;;;;;;;6.83;3.50;;;21.50;95.90;;;;;;4967524;28;20450;-75
2023/09/24 11:01:17;;;;;;;5.40;3.60;;;21.40;95.40;;;;;;4962653;28;20824;-74
2023/09/24 11:03:45;;;;;;;4.37;3.40;;;21.40;95.50;;;;;;4970175;28;20444;-75
2023/09/24 11:06:12;;;;;;;3.80;2.80;;;21.40;95.40;;;;;;4966863;28;20871;-74
2023/09/24 11:08:41;;;;;;;4.93;3.60;;;21.40;95.10;;;;;;4971860;28;20453;-76
2023/09/24 11:11:08;;;;;;;5.00;3.00;;;21.50;94.60;;;;;;4968865;28;20452;-74
2023/09/24 11:13:36;;;;;;;5.70;2.73;;;21.70;94.90;;;;;;4964203;28;20584;-75
2023/09/24 11:16:04;;;;;;;6.70;2.80;;;21.70;94.30;;;;;;4964380;28;21011;-76
2023/09/24 11:18:32;;;;;;;5.20;2.60;;;21.60;94.00;;;;;;4972398;28;20515;-76
2023/09/24 11:21:00;;;;;;;6.13;2.43;;;21.60;93.00;;;;;;4966614;28;20458;-74
2023/09/24 11:23:36;;;;;;;5.43;2.13;;;21.70;93.50;;;;;;4965939;28;20451;-74
2023/09/24 11:26:03;;;;;;;3.60;1.77;;;21.80;93.20;;;;;;4971845;28;20543;-75
2023/09/24 11:28:31;;;;;;;4.70;1.80;;;21.80;92.30;;;;;;4982417;28;20537;-75
2023/09/24 11:30:59;;;;;;;3.60;2.60;;;21.50;91.90;;;;;;4978887;28;20464;-75
2023/09/24 11:33:26;;;;;;;4.30;2.53;;;21.40;92.40;;;;;;4977340;28;20573;-75
2023/09/24 11:35:54;;;;;;;5.70;2.33;;;21.10;92.50;;;;;;4974295;28;20905;-74
2023/09/24 11:38:31;;;;;;;3.83;1.73;;;21.10;92.80;;;;;;4975277;28;20453;-74
2023/09/24 11:41:09;;;;;;;5.00;2.70;;;20.80;93.20;;;;;;4976130;28;20439;-75
2023/09/24 11:43:36;;;;;;;2.93;1.93;;;20.90;93.90;;;;;;4973131;28;20522;-74
2023/09/24 11:49:05;;;;;;;2.80;2.17;;;20.80;92.60;;;;;;4964925;28;20463;-75
2023/09/24 11:51:35;;;;;;;3.63;2.27;;;20.60;92.70;;;;;;4968869;28;20527;-74
2023/09/24 11:54:03;;;;;;;5.60;2.20;;;20.60;93.30;;;;;;4963633;28;20504;-75
2023/09/24 11:56:32;;;;;;;2.77;1.67;;;20.50;93.00;;;;;;4970903;28;20472;-76
2023/09/24 11:58:59;;;;;;;4.47;1.87;;;20.50;93.20;;;;;;4965338;28;20458;-75
2023/09/24 12:01:26;;;;;;;3.20;1.90;;;20.60;93.90;;;;;;4971889;28;20506;-73
2023/09/24 12:03:54;;;;;;;7.40;2.47;;;20.80;93.20;;;;;;4972945;28;20924;-73
2023/09/24 12:06:21;;;;;;;4.30;1.67;;;21.00;92.80;;;;;;4963693;28;20866;-72
2023/09/24 12:08:48;;;;;;;5.60;2.53;;;21.00;92.00;;;;;;4969704;28;20442;-72
2023/09/24 12:11:17;;;;;;;4.33;2.10;;;21.10;92.50;;;;;;4973084;28;20539;-74
2023/09/24 12:13:44;;;;;;;4.40;2.13;;;21.00;92.60;;;;;;4970097;28;20481;-73
2023/09/24 12:16:11;;;;;;;4.37;2.93;;;21.00;91.70;;;;;;4972337;28;20475;-73
2023/09/24 12:18:40;;;;;;;6.20;2.77;;;20.90;91.90;;;;;;4973827;28;20539;-73
2023/09/24 12:21:07;;;;;;;4.50;2.27;;;20.60;92.20;;;;;;4966123;28;20495;-73
2023/09/24 12:23:33;;;;;;;3.33;2.30;;;20.50;93.00;;;;;;4975454;28;20864;-72
2023/09/24 12:26:01;;;;;;;5.57;2.57;;;20.60;93.20;;;;;;4971070;28;20574;-74
2023/09/24 12:28:30;;;;;;;5.50;2.80;;;20.60;92.90;;;;;;4966401;28;20463;-74
2023/09/24 12:30:57;;;;;;;5.03;2.27;;;20.70;93.00;;;;;;4975099;28;20450;-74
2023/09/24 12:33:24;;;;;;;3.23;1.97;;;20.80;92.90;;;;;;4975403;28;20943;-74
2023/09/24 12:35:54;;;;;;;2.60;1.87;;;20.70;92.50;;;;;;4968252;28;20505;-73
2023/09/24 12:38:21;;;;;;;3.90;1.80;;;20.60;92.50;;;;;;4975628;28;20459;-73
2023/09/24 12:40:48;;;;;;;6.20;2.60;;;20.60;92.10;;;;;;4973289;28;20463;-74
2023/09/24 12:43:15;;;;;;;3.00;2.20;;;20.60;92.20;;;;;;4966153;28;20448;-72